sensor_id;sensor_type;location;lat;lon;timestamp;temperature;humidity
62916;DHT22;49010;51.230;-2.306;2023-02-01T00:01:33;7.00;96.10
62916;DHT22;49010;51.230;-2.306;2023-02-01T00:05:15;7.00;96.10
62916;DHT22;49010;51.230;-2.306;2023-02-01T00:08:57;7.00;96.40
62916;DHT22;49010;51.230;-2.306;2023-02-01T00:12:39;7.00;96.30
62916;DHT22;49010;51.230;-2.306;2023-02-01T00:16:23;7.00;96.10
62916;DHT22;49010;51.230;-2.306;2023-02-01T00:20:05;7.10;96.10
62916;DHT22;49010;51.230;-2.306;2023-02-01T00:23:48;7.10;96.20
62916;DHT22;49010;51.230;-2.306;2023-02-01T00:27:30;7.10;96.10
62916;DHT22;49010;51.230;-2.306;2023-02-01T00:31:12;7.10;96.00
62916;DHT22;49010;51.230;-2.306;2023-02-01T00:34:54;7.10;96.00
62916;DHT22;49010;51.230;-2.306;2023-02-01T00:38:37;7.00;96.00
62916;DHT22;49010;51.230;-2.306;2023-02-01T00:42:19;7.00;95.90
62916;DHT22;49010;51.230;-2.306;2023-02-01T00:46:01;7.00;95.90
62916;DHT22;49010;51.230;-2.306;2023-02-01T00:49:43;7.00;96.00
62916;DHT22;49010;51.230;-2.306;2023-02-01T00:53:25;7.00;95.90
62916;DHT22;49010;51.230;-2.306;2023-02-01T00:57:07;7.00;95.90
62916;DHT22;49010;51.230;-2.306;2023-02-01T01:00:49;7.10;96.50
62916;DHT22;49010;51.230;-2.306;2023-02-01T01:04:31;7.10;95.90
62916;DHT22;49010;51.230;-2.306;2023-02-01T01:08:14;7.10;95.90
62916;DHT22;49010;51.230;-2.306;2023-02-01T01:11:56;7.10;96.10
62916;DHT22;49010;51.230;-2.306;2023-02-01T01:15:39;7.10;96.10
62916;DHT22;49010;51.230;-2.306;2023-02-01T01:19:21;7.10;96.00
62916;DHT22;49010;51.230;-2.306;2023-02-01T01:23:03;7.00;96.20
62916;DHT22;49010;51.230;-2.306;2023-02-01T01:26:45;7.00;96.40
62916;DHT22;49010;51.230;-2.306;2023-02-01T01:30:27;7.00;96.40
62916;DHT22;49010;51.230;-2.306;2023-02-01T01:34:09;6.90;96.50
62916;DHT22;49010;51.230;-2.306;2023-02-01T01:37:51;6.90;96.60
62916;DHT22;49010;51.230;-2.306;2023-02-01T01:41:33;6.80;96.90
62916;DHT22;49010;51.230;-2.306;2023-02-01T01:45:27;6.90;97.10
62916;DHT22;49010;51.230;-2.306;2023-02-01T01:49:15;6.90;97.10
62916;DHT22;49010;51.230;-2.306;2023-02-01T01:53:00;6.90;97.20
62916;DHT22;49010;51.230;-2.306;2023-02-01T01:56:44;6.90;97.20
62916;DHT22;49010;51.230;-2.306;2023-02-01T02:00:29;6.90;97.10
62916;DHT22;49010;51.230;-2.306;2023-02-01T02:04:11;6.90;97.20
62916;DHT22;49010;51.230;-2.306;2023-02-01T02:07:58;6.90;97.00
62916;DHT22;49010;51.230;-2.306;2023-02-01T02:11:40;6.90;96.90
62916;DHT22;49010;51.230;-2.306;2023-02-01T02:15:22;6.90;96.70
62916;DHT22;49010;51.230;-2.306;2023-02-01T02:27:00;6.90;96.50
62916;DHT22;49010;51.230;-2.306;2023-02-01T02:35:30;6.90;96.70
62916;DHT22;49010;51.230;-2.306;2023-02-01T02:43:33;6.90;96.60
62916;DHT22;49010;51.230;-2.306;2023-02-01T02:47:52;6.90;96.90
62916;DHT22;49010;51.230;-2.306;2023-02-01T02:55:43;7.00;96.90
62916;DHT22;49010;51.230;-2.306;2023-02-01T02:59:28;7.10;96.90
62916;DHT22;49010;51.230;-2.306;2023-02-01T03:03:29;7.10;96.70
62916;DHT22;49010;51.230;-2.306;2023-02-01T03:11:27;7.10;97.10
62916;DHT22;49010;51.230;-2.306;2023-02-01T03:15:35;7.10;97.10
62916;DHT22;49010;51.230;-2.306;2023-02-01T03:19:22;7.10;97.10
62916;DHT22;49010;51.230;-2.306;2023-02-01T03:23:05;7.10;97.10
62916;DHT22;49010;51.230;-2.306;2023-02-01T03:26:53;7.10;97.10
62916;DHT22;49010;51.230;-2.306;2023-02-01T03:30:38;7.00;97.30
62916;DHT22;49010;51.230;-2.306;2023-02-01T03:34:23;7.00;97.20
62916;DHT22;49010;51.230;-2.306;2023-02-01T03:42:32;7.00;97.70
62916;DHT22;49010;51.230;-2.306;2023-02-01T03:46:30;7.00;97.50
62916;DHT22;49010;51.230;-2.306;2023-02-01T03:50:17;7.00;97.50
62916;DHT22;49010;51.230;-2.306;2023-02-01T03:54:01;7.00;97.60
62916;DHT22;49010;51.230;-2.306;2023-02-01T03:58:11;7.10;97.70
62916;DHT22;49010;51.230;-2.306;2023-02-01T04:01:50;7.20;97.70
62916;DHT22;49010;51.230;-2.306;2023-02-01T04:05:33;7.30;97.50
62916;DHT22;49010;51.230;-2.306;2023-02-01T04:09:15;7.30;97.60
62916;DHT22;49010;51.230;-2.306;2023-02-01T04:12:57;7.40;97.40
62916;DHT22;49010;51.230;-2.306;2023-02-01T04:16:39;7.40;97.30
62916;DHT22;49010;51.230;-2.306;2023-02-01T04:20:21;7.40;97.30
62916;DHT22;49010;51.230;-2.306;2023-02-01T04:24:03;7.50;97.10
62916;DHT22;49010;51.230;-2.306;2023-02-01T04:27:45;7.50;97.10
62916;DHT22;49010;51.230;-2.306;2023-02-01T04:31:27;7.50;97.50
62916;DHT22;49010;51.230;-2.306;2023-02-01T04:35:09;7.60;97.20
62916;DHT22;49010;51.230;-2.306;2023-02-01T04:38:53;7.70;97.40
62916;DHT22;49010;51.230;-2.306;2023-02-01T04:42:35;7.70;97.30
62916;DHT22;49010;51.230;-2.306;2023-02-01T04:46:17;7.80;97.70
62916;DHT22;49010;51.230;-2.306;2023-02-01T04:49:59;7.80;97.50
62916;DHT22;49010;51.230;-2.306;2023-02-01T04:53:40;7.80;97.60
62916;DHT22;49010;51.230;-2.306;2023-02-01T04:57:23;7.90;97.50
62916;DHT22;49010;51.230;-2.306;2023-02-01T05:01:06;7.90;97.70
62916;DHT22;49010;51.230;-2.306;2023-02-01T05:04:48;7.90;97.40
62916;DHT22;49010;51.230;-2.306;2023-02-01T05:08:30;7.90;97.30
62916;DHT22;49010;51.230;-2.306;2023-02-01T05:12:12;7.90;97.60
62916;DHT22;49010;51.230;-2.306;2023-02-01T05:16:13;8.00;97.50
62916;DHT22;49010;51.230;-2.306;2023-02-01T05:19:55;7.90;97.50
62916;DHT22;49010;51.230;-2.306;2023-02-01T05:23:36;7.90;97.40
62916;DHT22;49010;51.230;-2.306;2023-02-01T05:27:38;7.90;97.10
62916;DHT22;49010;51.230;-2.306;2023-02-01T05:31:20;7.90;97.20
62916;DHT22;49010;51.230;-2.306;2023-02-01T05:35:03;7.80;97.00
62916;DHT22;49010;51.230;-2.306;2023-02-01T05:38:45;7.90;97.00
62916;DHT22;49010;51.230;-2.306;2023-02-01T05:42:27;7.90;97.00
62916;DHT22;49010;51.230;-2.306;2023-02-01T05:46:08;7.90;97.10
62916;DHT22;49010;51.230;-2.306;2023-02-01T05:49:54;8.00;97.00
62916;DHT22;49010;51.230;-2.306;2023-02-01T05:53:36;7.90;97.00
62916;DHT22;49010;51.230;-2.306;2023-02-01T05:57:18;7.90;96.70
62916;DHT22;49010;51.230;-2.306;2023-02-01T06:01:00;7.80;96.70
62916;DHT22;49010;51.230;-2.306;2023-02-01T06:04:42;7.80;96.70
62916;DHT22;49010;51.230;-2.306;2023-02-01T06:08:24;7.70;96.50
62916;DHT22;49010;51.230;-2.306;2023-02-01T06:12:07;7.60;96.50
62916;DHT22;49010;51.230;-2.306;2023-02-01T06:15:49;7.50;96.40
62916;DHT22;49010;51.230;-2.306;2023-02-01T06:19:31;7.50;96.40
62916;DHT22;49010;51.230;-2.306;2023-02-01T06:23:13;7.40;96.50
62916;DHT22;49010;51.230;-2.306;2023-02-01T06:26:55;7.40;96.50
62916;DHT22;49010;51.230;-2.306;2023-02-01T06:30:36;7.40;96.60
62916;DHT22;49010;51.230;-2.306;2023-02-01T06:34:18;7.30;96.60
62916;DHT22;49010;51.230;-2.306;2023-02-01T06:38:02;7.30;96.70
62916;DHT22;49010;51.230;-2.306;2023-02-01T06:41:48;7.30;96.60
62916;DHT22;49010;51.230;-2.306;2023-02-01T06:45:30;7.30;96.70
62916;DHT22;49010;51.230;-2.306;2023-02-01T06:49:12;7.30;97.00
62916;DHT22;49010;51.230;-2.306;2023-02-01T06:52:54;7.30;97.20
62916;DHT22;49010;51.230;-2.306;2023-02-01T06:56:36;7.30;97.10
62916;DHT22;49010;51.230;-2.306;2023-02-01T07:00:18;7.30;97.10
62916;DHT22;49010;51.230;-2.306;2023-02-01T07:04:00;7.30;97.20
62916;DHT22;49010;51.230;-2.306;2023-02-01T07:07:42;7.30;97.20
62916;DHT22;49010;51.230;-2.306;2023-02-01T07:11:24;7.20;97.30
62916;DHT22;49010;51.230;-2.306;2023-02-01T07:15:09;7.20;97.30
62916;DHT22;49010;51.230;-2.306;2023-02-01T07:18:51;7.30;97.70
62916;DHT22;49010;51.230;-2.306;2023-02-01T07:22:33;7.20;97.50
62916;DHT22;49010;51.230;-2.306;2023-02-01T07:26:15;7.30;97.60
62916;DHT22;49010;51.230;-2.306;2023-02-01T07:29:58;7.30;98.00
62916;DHT22;49010;51.230;-2.306;2023-02-01T07:33:43;7.40;97.90
62916;DHT22;49010;51.230;-2.306;2023-02-01T07:37:25;7.40;97.90
62916;DHT22;49010;51.230;-2.306;2023-02-01T07:41:07;7.50;97.90
62916;DHT22;49010;51.230;-2.306;2023-02-01T07:44:49;7.50;98.00
62916;DHT22;49010;51.230;-2.306;2023-02-01T07:48:32;7.50;97.70
62916;DHT22;49010;51.230;-2.306;2023-02-01T07:52:15;7.50;97.60
62916;DHT22;49010;51.230;-2.306;2023-02-01T07:56:00;7.40;97.50
62916;DHT22;49010;51.230;-2.306;2023-02-01T07:59:43;7.40;97.40
62916;DHT22;49010;51.230;-2.306;2023-02-01T08:03:44;7.40;97.20
62916;DHT22;49010;51.230;-2.306;2023-02-01T08:07:25;7.30;97.30
62916;DHT22;49010;51.230;-2.306;2023-02-01T08:11:07;7.30;97.20
62916;DHT22;49010;51.230;-2.306;2023-02-01T08:14:49;7.30;97.20
62916;DHT22;49010;51.230;-2.306;2023-02-01T08:18:32;7.30;97.10
62916;DHT22;49010;51.230;-2.306;2023-02-01T08:22:14;7.30;97.20
62916;DHT22;49010;51.230;-2.306;2023-02-01T08:26:08;7.30;97.30
62916;DHT22;49010;51.230;-2.306;2023-02-01T08:29:50;7.40;97.50
62916;DHT22;49010;51.230;-2.306;2023-02-01T08:33:32;7.30;97.20
62916;DHT22;49010;51.230;-2.306;2023-02-01T08:37:14;7.30;97.30
62916;DHT22;49010;51.230;-2.306;2023-02-01T08:40:56;7.40;97.20
62916;DHT22;49010;51.230;-2.306;2023-02-01T08:44:38;7.30;97.10
62916;DHT22;49010;51.230;-2.306;2023-02-01T08:48:20;7.30;97.30
62916;DHT22;49010;51.230;-2.306;2023-02-01T08:52:02;7.30;97.50
62916;DHT22;49010;51.230;-2.306;2023-02-01T08:55:51;7.40;97.70
62916;DHT22;49010;51.230;-2.306;2023-02-01T08:59:33;7.50;98.10
62916;DHT22;49010;51.230;-2.306;2023-02-01T09:03:15;7.60;98.30
62916;DHT22;49010;51.230;-2.306;2023-02-01T09:06:57;7.80;98.50
62916;DHT22;49010;51.230;-2.306;2023-02-01T09:10:39;7.90;98.50
62916;DHT22;49010;51.230;-2.306;2023-02-01T09:14:21;8.10;98.60
62916;DHT22;49010;51.230;-2.306;2023-02-01T09:18:03;8.20;98.70
62916;DHT22;49010;51.230;-2.306;2023-02-01T09:21:45;8.30;98.70
62916;DHT22;49010;51.230;-2.306;2023-02-01T09:25:27;8.40;98.60
62916;DHT22;49010;51.230;-2.306;2023-02-01T09:29:09;8.60;98.50
62916;DHT22;49010;51.230;-2.306;2023-02-01T09:32:51;8.70;98.40
62916;DHT22;49010;51.230;-2.306;2023-02-01T09:36:34;8.80;98.40
62916;DHT22;49010;51.230;-2.306;2023-02-01T09:40:16;8.90;98.30
62916;DHT22;49010;51.230;-2.306;2023-02-01T09:47:59;9.30;98.00
62916;DHT22;49010;51.230;-2.306;2023-02-01T09:51:47;9.40;97.70
62916;DHT22;49010;51.230;-2.306;2023-02-01T09:55:42;9.50;97.60
62916;DHT22;49010;51.230;-2.306;2023-02-01T09:59:44;9.60;98.10
62916;DHT22;49010;51.230;-2.306;2023-02-01T10:03:33;9.80;97.70
62916;DHT22;49010;51.230;-2.306;2023-02-01T10:07:50;10.10;97.80
62916;DHT22;49010;51.230;-2.306;2023-02-01T10:19:55;11.30;94.70
62916;DHT22;49010;51.230;-2.306;2023-02-01T10:27:41;11.30;94.80
62916;DHT22;49010;51.230;-2.306;2023-02-01T10:31:26;11.20;94.00
62916;DHT22;49010;51.230;-2.306;2023-02-01T10:35:24;11.00;93.90
62916;DHT22;49010;51.230;-2.306;2023-02-01T10:39:10;11.00;94.60
62916;DHT22;49010;51.230;-2.306;2023-02-01T10:42:56;11.10;93.90
62916;DHT22;49010;51.230;-2.306;2023-02-01T10:46:39;11.20;93.20
62916;DHT22;49010;51.230;-2.306;2023-02-01T10:54:20;11.20;93.20
62916;DHT22;49010;51.230;-2.306;2023-02-01T10:58:05;11.10;93.30
62916;DHT22;49010;51.230;-2.306;2023-02-01T11:01:49;11.20;92.70
62916;DHT22;49010;51.230;-2.306;2023-02-01T11:05:44;11.40;92.40
62916;DHT22;49010;51.230;-2.306;2023-02-01T11:09:26;11.40;92.60
62916;DHT22;49010;51.230;-2.306;2023-02-01T11:13:17;11.50;92.10
62916;DHT22;49010;51.230;-2.306;2023-02-01T11:17:02;11.60;92.50
62916;DHT22;49010;51.230;-2.306;2023-02-01T11:20:52;11.90;91.80
62916;DHT22;49010;51.230;-2.306;2023-02-01T11:24:37;12.30;91.50
62916;DHT22;49010;51.230;-2.306;2023-02-01T11:28:26;12.60;90.50
62916;DHT22;49010;51.230;-2.306;2023-02-01T11:32:11;12.80;90.50
62916;DHT22;49010;51.230;-2.306;2023-02-01T11:35:53;12.70;89.40
62916;DHT22;49010;51.230;-2.306;2023-02-01T11:39:35;12.60;90.00
62916;DHT22;49010;51.230;-2.306;2023-02-01T11:43:26;12.70;89.50
62916;DHT22;49010;51.230;-2.306;2023-02-01T11:47:20;12.90;90.10
62916;DHT22;49010;51.230;-2.306;2023-02-01T11:51:11;12.80;89.70
62916;DHT22;49010;51.230;-2.306;2023-02-01T11:59:32;12.60;88.60
62916;DHT22;49010;51.230;-2.306;2023-02-01T12:03:15;12.60;90.40
62916;DHT22;49010;51.230;-2.306;2023-02-01T12:07:09;12.40;88.50
62916;DHT22;49010;51.230;-2.306;2023-02-01T12:19:15;12.00;89.00
62916;DHT22;49010;51.230;-2.306;2023-02-01T12:35:25;11.70;90.10
62916;DHT22;49010;51.230;-2.306;2023-02-01T12:43:11;11.60;90.90
62916;DHT22;49010;51.230;-2.306;2023-02-01T12:47:11;11.40;91.20
62916;DHT22;49010;51.230;-2.306;2023-02-01T12:50:57;11.40;91.00
62916;DHT22;49010;51.230;-2.306;2023-02-01T12:55:01;11.30;90.80
62916;DHT22;49010;51.230;-2.306;2023-02-01T12:58:48;11.30;92.40
62916;DHT22;49010;51.230;-2.306;2023-02-01T13:06:28;11.20;91.20
62916;DHT22;49010;51.230;-2.306;2023-02-01T13:10:42;11.20;91.90
62916;DHT22;49010;51.230;-2.306;2023-02-01T13:14:54;11.10;92.10
62916;DHT22;49010;51.230;-2.306;2023-02-01T13:18:39;11.10;91.60
62916;DHT22;49010;51.230;-2.306;2023-02-01T13:22:53;11.10;91.70
62916;DHT22;49010;51.230;-2.306;2023-02-01T13:26:36;11.10;91.50
62916;DHT22;49010;51.230;-2.306;2023-02-01T13:30:26;11.20;91.40
62916;DHT22;49010;51.230;-2.306;2023-02-01T13:38:32;11.20;92.00
62916;DHT22;49010;51.230;-2.306;2023-02-01T13:46:23;11.30;92.10
62916;DHT22;49010;51.230;-2.306;2023-02-01T13:50:35;11.30;91.30
62916;DHT22;49010;51.230;-2.306;2023-02-01T13:54:30;11.40;92.00
62916;DHT22;49010;51.230;-2.306;2023-02-01T13:58:28;11.40;92.00
62916;DHT22;49010;51.230;-2.306;2023-02-01T14:11:30;11.60;91.80
62916;DHT22;49010;51.230;-2.306;2023-02-01T14:26:07;11.60;92.20
62916;DHT22;49010;51.230;-2.306;2023-02-01T14:30:04;11.60;91.50
62916;DHT22;49010;51.230;-2.306;2023-02-01T14:33:47;11.70;91.70
62916;DHT22;49010;51.230;-2.306;2023-02-01T14:37:39;11.70;91.30
62916;DHT22;49010;51.230;-2.306;2023-02-01T14:41:30;11.80;91.40
62916;DHT22;49010;51.230;-2.306;2023-02-01T14:49:05;11.70;91.70
62916;DHT22;49010;51.230;-2.306;2023-02-01T14:56:54;11.60;92.00
62916;DHT22;49010;51.230;-2.306;2023-02-01T15:00:36;11.70;92.00
62916;DHT22;49010;51.230;-2.306;2023-02-01T15:04:19;11.70;91.50
62916;DHT22;49010;51.230;-2.306;2023-02-01T15:08:16;11.80;91.00
62916;DHT22;49010;51.230;-2.306;2023-02-01T15:15:45;11.80;90.80
62916;DHT22;49010;51.230;-2.306;2023-02-01T15:19:53;11.80;90.40
62916;DHT22;49010;51.230;-2.306;2023-02-01T15:23:35;11.80;90.60
62916;DHT22;49010;51.230;-2.306;2023-02-01T15:27:17;11.70;91.00
62916;DHT22;49010;51.230;-2.306;2023-02-01T15:31:02;11.60;90.60
62916;DHT22;49010;51.230;-2.306;2023-02-01T15:34:49;11.50;90.50
62916;DHT22;49010;51.230;-2.306;2023-02-01T15:38:33;11.50;90.60
62916;DHT22;49010;51.230;-2.306;2023-02-01T15:42:17;11.40;90.50
62916;DHT22;49010;51.230;-2.306;2023-02-01T15:46:03;11.40;90.40
62916;DHT22;49010;51.230;-2.306;2023-02-01T15:49:51;11.30;90.90
62916;DHT22;49010;51.230;-2.306;2023-02-01T15:53:35;11.30;90.90
62916;DHT22;49010;51.230;-2.306;2023-02-01T15:57:31;11.20;92.80
62916;DHT22;49010;51.230;-2.306;2023-02-01T16:01:14;11.20;92.30
62916;DHT22;49010;51.230;-2.306;2023-02-01T16:04:56;11.10;91.80
62916;DHT22;49010;51.230;-2.306;2023-02-01T16:09:12;11.10;91.50
62916;DHT22;49010;51.230;-2.306;2023-02-01T16:12:51;11.00;92.00
62916;DHT22;49010;51.230;-2.306;2023-02-01T16:16:39;11.00;91.60
62916;DHT22;49010;51.230;-2.306;2023-02-01T16:20:21;11.00;91.70
62916;DHT22;49010;51.230;-2.306;2023-02-01T16:24:03;11.00;91.70
62916;DHT22;49010;51.230;-2.306;2023-02-01T16:27:47;11.00;91.90
62916;DHT22;49010;51.230;-2.306;2023-02-01T16:31:30;10.90;92.20
62916;DHT22;49010;51.230;-2.306;2023-02-01T16:35:27;10.80;92.20
62916;DHT22;49010;51.230;-2.306;2023-02-01T16:39:12;10.80;92.30
62916;DHT22;49010;51.230;-2.306;2023-02-01T16:42:55;10.80;92.50
62916;DHT22;49010;51.230;-2.306;2023-02-01T16:46:44;10.70;92.50
62916;DHT22;49010;51.230;-2.306;2023-02-01T16:50:27;10.70;92.60
62916;DHT22;49010;51.230;-2.306;2023-02-01T16:54:10;10.70;92.50
62916;DHT22;49010;51.230;-2.306;2023-02-01T16:57:52;10.60;92.60
62916;DHT22;49010;51.230;-2.306;2023-02-01T17:01:34;10.60;93.20
62916;DHT22;49010;51.230;-2.306;2023-02-01T17:05:15;10.60;92.90
62916;DHT22;49010;51.230;-2.306;2023-02-01T17:08:59;10.50;92.80
62916;DHT22;49010;51.230;-2.306;2023-02-01T17:12:41;10.50;92.70
62916;DHT22;49010;51.230;-2.306;2023-02-01T17:16:29;10.50;92.80
62916;DHT22;49010;51.230;-2.306;2023-02-01T17:20:19;10.50;93.10
62916;DHT22;49010;51.230;-2.306;2023-02-01T17:24:02;10.50;93.30
62916;DHT22;49010;51.230;-2.306;2023-02-01T17:27:44;10.40;93.00
62916;DHT22;49010;51.230;-2.306;2023-02-01T17:31:27;10.40;93.40
62916;DHT22;49010;51.230;-2.306;2023-02-01T17:35:17;10.30;93.50
62916;DHT22;49010;51.230;-2.306;2023-02-01T17:39:00;10.30;93.60
62916;DHT22;49010;51.230;-2.306;2023-02-01T17:42:47;10.30;93.50
62916;DHT22;49010;51.230;-2.306;2023-02-01T17:46:30;10.20;93.70
62916;DHT22;49010;51.230;-2.306;2023-02-01T17:50:13;10.20;93.70
62916;DHT22;49010;51.230;-2.306;2023-02-01T17:53:55;10.10;93.80
62916;DHT22;49010;51.230;-2.306;2023-02-01T17:57:37;10.20;94.00
62916;DHT22;49010;51.230;-2.306;2023-02-01T18:01:21;10.20;94.00
62916;DHT22;49010;51.230;-2.306;2023-02-01T18:05:19;10.20;93.50
62916;DHT22;49010;51.230;-2.306;2023-02-01T18:09:03;10.20;94.00
62916;DHT22;49010;51.230;-2.306;2023-02-01T18:12:45;10.20;93.50
62916;DHT22;49010;51.230;-2.306;2023-02-01T18:16:29;10.20;93.50
62916;DHT22;49010;51.230;-2.306;2023-02-01T18:20:20;10.30;93.60
62916;DHT22;49010;51.230;-2.306;2023-02-01T18:24:03;10.20;93.70
62916;DHT22;49010;51.230;-2.306;2023-02-01T18:27:50;10.20;93.80
62916;DHT22;49010;51.230;-2.306;2023-02-01T18:31:34;10.20;94.10
62916;DHT22;49010;51.230;-2.306;2023-02-01T18:35:27;10.20;93.70
62916;DHT22;49010;51.230;-2.306;2023-02-01T18:39:09;10.30;94.10
62916;DHT22;49010;51.230;-2.306;2023-02-01T18:42:52;10.20;93.70
62916;DHT22;49010;51.230;-2.306;2023-02-01T18:46:34;10.20;93.90
62916;DHT22;49010;51.230;-2.306;2023-02-01T18:50:16;10.20;94.00
62916;DHT22;49010;51.230;-2.306;2023-02-01T18:53:58;10.20;94.20
62916;DHT22;49010;51.230;-2.306;2023-02-01T18:57:40;10.20;93.90
62916;DHT22;49010;51.230;-2.306;2023-02-01T19:01:22;10.20;94.20
62916;DHT22;49010;51.230;-2.306;2023-02-01T19:05:09;10.10;94.00
62916;DHT22;49010;51.230;-2.306;2023-02-01T19:08:51;10.10;94.00
62916;DHT22;49010;51.230;-2.306;2023-02-01T19:12:34;10.10;94.20
62916;DHT22;49010;51.230;-2.306;2023-02-01T19:16:17;10.10;94.20
62916;DHT22;49010;51.230;-2.306;2023-02-01T19:19:59;10.10;94.20
62916;DHT22;49010;51.230;-2.306;2023-02-01T19:23:41;10.10;94.10
62916;DHT22;49010;51.230;-2.306;2023-02-01T19:27:23;10.10;94.20
62916;DHT22;49010;51.230;-2.306;2023-02-01T19:31:06;10.10;94.70
62916;DHT22;49010;51.230;-2.306;2023-02-01T19:34:49;10.10;94.30
62916;DHT22;49010;51.230;-2.306;2023-02-01T19:38:32;10.10;94.50
62916;DHT22;49010;51.230;-2.306;2023-02-01T19:42:14;10.10;94.50
62916;DHT22;49010;51.230;-2.306;2023-02-01T19:45:56;10.10;94.60
62916;DHT22;49010;51.230;-2.306;2023-02-01T19:49:38;10.00;94.60
62916;DHT22;49010;51.230;-2.306;2023-02-01T19:53:20;10.00;94.50
62916;DHT22;49010;51.230;-2.306;2023-02-01T19:57:05;10.00;94.40
62916;DHT22;49010;51.230;-2.306;2023-02-01T20:00:47;10.00;94.60
62916;DHT22;49010;51.230;-2.306;2023-02-01T20:04:28;10.00;94.50
62916;DHT22;49010;51.230;-2.306;2023-02-01T20:08:10;10.00;94.60
62916;DHT22;49010;51.230;-2.306;2023-02-01T20:11:52;10.10;94.60
62916;DHT22;49010;51.230;-2.306;2023-02-01T20:15:35;10.00;94.50
62916;DHT22;49010;51.230;-2.306;2023-02-01T20:19:17;10.10;94.60
62916;DHT22;49010;51.230;-2.306;2023-02-01T20:22:59;10.00;94.60
62916;DHT22;49010;51.230;-2.306;2023-02-01T20:26:41;10.00;95.00
62916;DHT22;49010;51.230;-2.306;2023-02-01T20:30:23;10.00;94.80
62916;DHT22;49010;51.230;-2.306;2023-02-01T20:34:05;10.00;94.80
62916;DHT22;49010;51.230;-2.306;2023-02-01T20:37:50;10.00;95.40
62916;DHT22;49010;51.230;-2.306;2023-02-01T20:41:33;9.90;94.90
62916;DHT22;49010;51.230;-2.306;2023-02-01T20:45:15;9.90;95.20
62916;DHT22;49010;51.230;-2.306;2023-02-01T20:48:57;9.90;95.30
62916;DHT22;49010;51.230;-2.306;2023-02-01T20:52:39;9.90;95.30
62916;DHT22;49010;51.230;-2.306;2023-02-01T20:56:21;9.90;95.30
62916;DHT22;49010;51.230;-2.306;2023-02-01T21:00:04;9.90;95.30
62916;DHT22;49010;51.230;-2.306;2023-02-01T21:03:53;9.90;95.30
62916;DHT22;49010;51.230;-2.306;2023-02-01T21:07:36;9.80;95.30
62916;DHT22;49010;51.230;-2.306;2023-02-01T21:11:18;9.80;95.30
62916;DHT22;49010;51.230;-2.306;2023-02-01T21:15:03;9.80;95.40
62916;DHT22;49010;51.230;-2.306;2023-02-01T21:18:50;9.80;95.40
62916;DHT22;49010;51.230;-2.306;2023-02-01T21:22:32;9.80;95.40
62916;DHT22;49010;51.230;-2.306;2023-02-01T21:26:19;9.80;95.40
62916;DHT22;49010;51.230;-2.306;2023-02-01T21:30:05;9.70;95.40
62916;DHT22;49010;51.230;-2.306;2023-02-01T21:33:48;9.70;95.50
62916;DHT22;49010;51.230;-2.306;2023-02-01T21:37:30;9.70;95.60
62916;DHT22;49010;51.230;-2.306;2023-02-01T21:41:11;9.60;95.60
62916;DHT22;49010;51.230;-2.306;2023-02-01T21:45:13;9.60;95.80
62916;DHT22;49010;51.230;-2.306;2023-02-01T21:48:55;9.60;95.80
62916;DHT22;49010;51.230;-2.306;2023-02-01T21:52:46;9.60;95.90
62916;DHT22;49010;51.230;-2.306;2023-02-01T21:56:29;9.60;96.00
62916;DHT22;49010;51.230;-2.306;2023-02-01T22:00:11;9.60;96.20
62916;DHT22;49010;51.230;-2.306;2023-02-01T22:03:54;9.70;96.10
62916;DHT22;49010;51.230;-2.306;2023-02-01T22:07:36;9.70;96.00
62916;DHT22;49010;51.230;-2.306;2023-02-01T22:11:18;9.70;96.10
62916;DHT22;49010;51.230;-2.306;2023-02-01T22:15:00;9.80;96.20
62916;DHT22;49010;51.230;-2.306;2023-02-01T22:18:43;9.80;96.20
62916;DHT22;49010;51.230;-2.306;2023-02-01T22:22:25;9.80;96.30
62916;DHT22;49010;51.230;-2.306;2023-02-01T22:26:08;9.80;96.30
62916;DHT22;49010;51.230;-2.306;2023-02-01T22:29:50;9.80;96.40
62916;DHT22;49010;51.230;-2.306;2023-02-01T22:33:33;9.80;96.50
62916;DHT22;49010;51.230;-2.306;2023-02-01T22:37:15;9.80;96.50
62916;DHT22;49010;51.230;-2.306;2023-02-01T22:40:59;9.80;96.60
62916;DHT22;49010;51.230;-2.306;2023-02-01T22:44:41;9.80;96.50
62916;DHT22;49010;51.230;-2.306;2023-02-01T22:48:26;9.80;96.50
62916;DHT22;49010;51.230;-2.306;2023-02-01T22:52:08;9.80;96.40
62916;DHT22;49010;51.230;-2.306;2023-02-01T22:55:50;9.90;96.60
62916;DHT22;49010;51.230;-2.306;2023-02-01T22:59:32;9.90;96.50
62916;DHT22;49010;51.230;-2.306;2023-02-01T23:03:14;9.90;96.40
62916;DHT22;49010;51.230;-2.306;2023-02-01T23:06:56;9.90;96.50
62916;DHT22;49010;51.230;-2.306;2023-02-01T23:10:38;9.90;96.50
62916;DHT22;49010;51.230;-2.306;2023-02-01T23:14:20;10.00;96.50
62916;DHT22;49010;51.230;-2.306;2023-02-01T23:18:02;9.90;96.50
62916;DHT22;49010;51.230;-2.306;2023-02-01T23:21:44;9.90;96.60
62916;DHT22;49010;51.230;-2.306;2023-02-01T23:25:26;9.90;96.60
62916;DHT22;49010;51.230;-2.306;2023-02-01T23:29:11;9.90;96.60
62916;DHT22;49010;51.230;-2.306;2023-02-01T23:32:56;10.00;96.60
62916;DHT22;49010;51.230;-2.306;2023-02-01T23:36:38;10.00;96.50
62916;DHT22;49010;51.230;-2.306;2023-02-01T23:40:20;9.90;96.50
62916;DHT22;49010;51.230;-2.306;2023-02-01T23:44:02;10.00;96.60
62916;DHT22;49010;51.230;-2.306;2023-02-01T23:47:44;9.90;96.80
62916;DHT22;49010;51.230;-2.306;2023-02-01T23:51:26;9.90;96.80
62916;DHT22;49010;51.230;-2.306;2023-02-01T23:55:08;9.90;96.90
62916;DHT22;49010;51.230;-2.306;2023-02-01T23:58:51;9.90;96.90
